sensor_id;sensor_type;location;lat;lon;timestamp;temperature;humidity
6662;DHT22;3367;48.714;8.994;2022-12-18T00:00:08;-11.60;1.00
6662;DHT22;3367;48.714;8.994;2022-12-18T00:02:35;-11.90;1.00
6662;DHT22;3367;48.714;8.994;2022-12-18T00:05:01;-11.90;1.00
6662;DHT22;3367;48.714;8.994;2022-12-18T00:07:28;-11.90;1.00
6662;DHT22;3367;48.714;8.994;2022-12-18T00:09:55;-11.90;1.00
6662;DHT22;3367;48.714;8.994;2022-12-18T00:12:21;-12.00;1.00
6662;DHT22;3367;48.714;8.994;2022-12-18T00:14:48;-12.00;1.00
6662;DHT22;3367;48.714;8.994;2022-12-18T00:17:16;-12.00;1.00
6662;DHT22;3367;48.714;8.994;2022-12-18T00:19:43;-12.00;1.00
6662;DHT22;3367;48.714;8.994;2022-12-18T00:22:10;-12.00;1.00
6662;DHT22;3367;48.714;8.994;2022-12-18T00:24:36;-12.10;1.00
6662;DHT22;3367;48.714;8.994;2022-12-18T00:27:03;-12.10;1.00
6662;DHT22;3367;48.714;8.994;2022-12-18T00:29:30;-12.10;1.00
6662;DHT22;3367;48.714;8.994;2022-12-18T00:31:56;-12.10;1.00
6662;DHT22;3367;48.714;8.994;2022-12-18T00:34:24;-12.00;1.00
6662;DHT22;3367;48.714;8.994;2022-12-18T00:36:51;-12.00;1.00
6662;DHT22;3367;48.714;8.994;2022-12-18T00:39:18;-12.00;1.00
6662;DHT22;3367;48.714;8.994;2022-12-18T00:41:45;-12.10;1.00
6662;DHT22;3367;48.714;8.994;2022-12-18T00:44:29;-12.10;1.00
6662;DHT22;3367;48.714;8.994;2022-12-18T00:46:56;-12.20;99.90
6662;DHT22;3367;48.714;8.994;2022-12-18T00:49:24;-12.20;99.90
6662;DHT22;3367;48.714;8.994;2022-12-18T00:51:50;-12.30;99.90
6662;DHT22;3367;48.714;8.994;2022-12-18T00:54:17;-12.20;1.00
6662;DHT22;3367;48.714;8.994;2022-12-18T00:56:44;-12.20;1.00
6662;DHT22;3367;48.714;8.994;2022-12-18T00:59:11;-12.20;1.00
6662;DHT22;3367;48.714;8.994;2022-12-18T01:01:38;-12.20;1.00
6662;DHT22;3367;48.714;8.994;2022-12-18T01:04:05;-12.10;1.00
6662;DHT22;3367;48.714;8.994;2022-12-18T01:06:33;-12.20;99.90
6662;DHT22;3367;48.714;8.994;2022-12-18T01:09:00;-12.20;1.00
6662;DHT22;3367;48.714;8.994;2022-12-18T01:11:26;-12.10;1.00
6662;DHT22;3367;48.714;8.994;2022-12-18T01:13:54;-12.10;1.00
6662;DHT22;3367;48.714;8.994;2022-12-18T01:16:21;-12.20;99.90
6662;DHT22;3367;48.714;8.994;2022-12-18T01:18:51;-12.20;99.90
6662;DHT22;3367;48.714;8.994;2022-12-18T01:21:18;-12.20;99.90
6662;DHT22;3367;48.714;8.994;2022-12-18T01:23:46;-12.20;99.90
6662;DHT22;3367;48.714;8.994;2022-12-18T01:26:15;-12.20;99.90
6662;DHT22;3367;48.714;8.994;2022-12-18T01:28:42;-12.30;99.90
6662;DHT22;3367;48.714;8.994;2022-12-18T01:31:16;-12.20;99.90
6662;DHT22;3367;48.714;8.994;2022-12-18T01:33:43;-12.20;99.90
6662;DHT22;3367;48.714;8.994;2022-12-18T01:36:16;-12.10;1.00
6662;DHT22;3367;48.714;8.994;2022-12-18T01:38:43;-12.10;99.90
6662;DHT22;3367;48.714;8.994;2022-12-18T01:41:11;-12.10;99.90
6662;DHT22;3367;48.714;8.994;2022-12-18T01:43:42;-12.00;1.00
6662;DHT22;3367;48.714;8.994;2022-12-18T01:46:09;-11.90;1.00
6662;DHT22;3367;48.714;8.994;2022-12-18T01:48:36;-11.90;1.00
6662;DHT22;3367;48.714;8.994;2022-12-18T01:51:06;-11.90;1.00
6662;DHT22;3367;48.714;8.994;2022-12-18T01:53:33;-11.90;1.00
6662;DHT22;3367;48.714;8.994;2022-12-18T01:56:00;-11.90;1.00
6662;DHT22;3367;48.714;8.994;2022-12-18T01:58:38;-11.90;1.00
6662;DHT22;3367;48.714;8.994;2022-12-18T02:01:05;-11.90;1.00
6662;DHT22;3367;48.714;8.994;2022-12-18T02:03:32;-11.90;1.00
6662;DHT22;3367;48.714;8.994;2022-12-18T02:06:04;-11.90;1.00
6662;DHT22;3367;48.714;8.994;2022-12-18T02:08:38;-11.80;1.00
6662;DHT22;3367;48.714;8.994;2022-12-18T02:11:10;-11.80;1.00
6662;DHT22;3367;48.714;8.994;2022-12-18T02:13:48;-11.70;1.00
6662;DHT22;3367;48.714;8.994;2022-12-18T02:16:23;-11.70;1.00
6662;DHT22;3367;48.714;8.994;2022-12-18T02:18:54;-11.60;1.00
6662;DHT22;3367;48.714;8.994;2022-12-18T02:21:28;-11.60;1.00
6662;DHT22;3367;48.714;8.994;2022-12-18T02:24:10;-11.60;1.00
6662;DHT22;3367;48.714;8.994;2022-12-18T02:26:44;-11.60;1.00
6662;DHT22;3367;48.714;8.994;2022-12-18T02:29:15;-11.70;99.90
6662;DHT22;3367;48.714;8.994;2022-12-18T02:31:47;-11.70;99.90
6662;DHT22;3367;48.714;8.994;2022-12-18T02:34:17;-11.80;99.90
6662;DHT22;3367;48.714;8.994;2022-12-18T02:36:46;-11.80;99.90
6662;DHT22;3367;48.714;8.994;2022-12-18T02:39:15;-11.80;99.90
6662;DHT22;3367;48.714;8.994;2022-12-18T02:41:44;-11.90;99.90
6662;DHT22;3367;48.714;8.994;2022-12-18T02:44:13;-11.90;99.90
6662;DHT22;3367;48.714;8.994;2022-12-18T02:46:42;-11.90;99.90
6662;DHT22;3367;48.714;8.994;2022-12-18T02:49:25;-11.90;99.90
6662;DHT22;3367;48.714;8.994;2022-12-18T02:51:56;-11.90;99.90
6662;DHT22;3367;48.714;8.994;2022-12-18T02:54:37;-11.80;99.90
6662;DHT22;3367;48.714;8.994;2022-12-18T02:57:13;-11.70;1.00
6662;DHT22;3367;48.714;8.994;2022-12-18T02:59:47;-11.70;1.00
6662;DHT22;3367;48.714;8.994;2022-12-18T03:02:21;-11.70;1.00
6662;DHT22;3367;48.714;8.994;2022-12-18T03:04:53;-11.60;1.00
6662;DHT22;3367;48.714;8.994;2022-12-18T03:07:27;-11.50;1.00
6662;DHT22;3367;48.714;8.994;2022-12-18T03:10:00;-11.40;1.00
6662;DHT22;3367;48.714;8.994;2022-12-18T03:12:31;-11.30;1.00
6662;DHT22;3367;48.714;8.994;2022-12-18T03:15:02;-11.20;1.00
6662;DHT22;3367;48.714;8.994;2022-12-18T03:17:32;-11.10;1.00
6662;DHT22;3367;48.714;8.994;2022-12-18T03:20:03;-11.10;1.00
6662;DHT22;3367;48.714;8.994;2022-12-18T03:22:33;-11.00;1.00
6662;DHT22;3367;48.714;8.994;2022-12-18T03:25:02;-11.00;1.00
6662;DHT22;3367;48.714;8.994;2022-12-18T03:27:33;-10.90;1.00
6662;DHT22;3367;48.714;8.994;2022-12-18T03:30:04;-10.80;1.00
6662;DHT22;3367;48.714;8.994;2022-12-18T03:32:38;-10.80;1.00
6662;DHT22;3367;48.714;8.994;2022-12-18T03:35:09;-10.80;1.00
6662;DHT22;3367;48.714;8.994;2022-12-18T03:37:37;-10.70;1.00
6662;DHT22;3367;48.714;8.994;2022-12-18T03:40:05;-10.80;1.00
6662;DHT22;3367;48.714;8.994;2022-12-18T03:42:41;-10.80;1.00
6662;DHT22;3367;48.714;8.994;2022-12-18T03:45:14;-10.80;1.00
6662;DHT22;3367;48.714;8.994;2022-12-18T03:47:53;-10.90;1.00
6662;DHT22;3367;48.714;8.994;2022-12-18T03:50:24;-10.90;1.00
6662;DHT22;3367;48.714;8.994;2022-12-18T03:52:58;-10.90;1.00
6662;DHT22;3367;48.714;8.994;2022-12-18T03:55:29;-11.00;1.00
6662;DHT22;3367;48.714;8.994;2022-12-18T03:58:01;-11.00;1.00
6662;DHT22;3367;48.714;8.994;2022-12-18T04:00:31;-11.00;1.00
6662;DHT22;3367;48.714;8.994;2022-12-18T04:03:00;-11.00;1.00
6662;DHT22;3367;48.714;8.994;2022-12-18T04:05:29;-11.00;1.00
6662;DHT22;3367;48.714;8.994;2022-12-18T04:07:56;-11.00;1.00
6662;DHT22;3367;48.714;8.994;2022-12-18T04:10:23;-10.90;1.00
6662;DHT22;3367;48.714;8.994;2022-12-18T04:12:50;-10.90;1.00
6662;DHT22;3367;48.714;8.994;2022-12-18T04:15:18;-10.90;1.00
6662;DHT22;3367;48.714;8.994;2022-12-18T04:17:48;-10.90;1.00
6662;DHT22;3367;48.714;8.994;2022-12-18T04:20:15;-10.90;1.00
6662;DHT22;3367;48.714;8.994;2022-12-18T04:22:42;-10.90;1.00
6662;DHT22;3367;48.714;8.994;2022-12-18T04:25:09;-11.00;1.00
6662;DHT22;3367;48.714;8.994;2022-12-18T04:27:37;-11.00;1.00
6662;DHT22;3367;48.714;8.994;2022-12-18T04:30:05;-11.00;1.00
6662;DHT22;3367;48.714;8.994;2022-12-18T04:32:34;-10.90;1.00
6662;DHT22;3367;48.714;8.994;2022-12-18T04:35:01;-10.90;1.00
6662;DHT22;3367;48.714;8.994;2022-12-18T04:37:29;-10.80;1.00
6662;DHT22;3367;48.714;8.994;2022-12-18T04:39:56;-10.70;99.90
6662;DHT22;3367;48.714;8.994;2022-12-18T04:42:23;-10.30;1.00
6662;DHT22;3367;48.714;8.994;2022-12-18T04:44:49;-10.10;1.00
6662;DHT22;3367;48.714;8.994;2022-12-18T04:47:16;-9.90;21.30
6662;DHT22;3367;48.714;8.994;2022-12-18T04:49:44;-9.70;99.90
6662;DHT22;3367;48.714;8.994;2022-12-18T04:52:11;-9.60;1.00
6662;DHT22;3367;48.714;8.994;2022-12-18T04:54:38;-9.50;1.00
6662;DHT22;3367;48.714;8.994;2022-12-18T04:57:05;-9.40;1.00
6662;DHT22;3367;48.714;8.994;2022-12-18T04:59:32;-9.30;1.00
6662;DHT22;3367;48.714;8.994;2022-12-18T05:01:58;-9.30;1.00
6662;DHT22;3367;48.714;8.994;2022-12-18T05:04:25;-9.20;1.00
6662;DHT22;3367;48.714;8.994;2022-12-18T05:06:53;-9.10;1.00
6662;DHT22;3367;48.714;8.994;2022-12-18T05:09:20;-9.10;39.40
6662;DHT22;3367;48.714;8.994;2022-12-18T05:11:47;-9.00;96.10
6662;DHT22;3367;48.714;8.994;2022-12-18T05:14:14;-9.00;99.90
6662;DHT22;3367;48.714;8.994;2022-12-18T05:16:41;-9.00;99.90
6662;DHT22;3367;48.714;8.994;2022-12-18T05:19:08;-8.90;99.90
6662;DHT22;3367;48.714;8.994;2022-12-18T05:21:35;-8.90;99.90
6662;DHT22;3367;48.714;8.994;2022-12-18T05:24:04;-8.90;99.90
6662;DHT22;3367;48.714;8.994;2022-12-18T05:26:30;-8.80;99.90
6662;DHT22;3367;48.714;8.994;2022-12-18T05:28:57;-8.80;99.90
6662;DHT22;3367;48.714;8.994;2022-12-18T05:31:24;-8.80;99.90
6662;DHT22;3367;48.714;8.994;2022-12-18T05:33:51;-8.80;99.90
6662;DHT22;3367;48.714;8.994;2022-12-18T05:36:18;-8.70;99.90
6662;DHT22;3367;48.714;8.994;2022-12-18T05:38:44;-8.70;99.90
6662;DHT22;3367;48.714;8.994;2022-12-18T05:41:13;-8.70;99.90
6662;DHT22;3367;48.714;8.994;2022-12-18T05:43:39;-8.70;99.90
6662;DHT22;3367;48.714;8.994;2022-12-18T05:46:08;-8.70;99.90
6662;DHT22;3367;48.714;8.994;2022-12-18T05:48:35;-8.70;99.90
6662;DHT22;3367;48.714;8.994;2022-12-18T05:51:06;-8.70;99.90
6662;DHT22;3367;48.714;8.994;2022-12-18T05:53:35;-8.80;1.00
6662;DHT22;3367;48.714;8.994;2022-12-18T05:56:03;-8.90;1.00
6662;DHT22;3367;48.714;8.994;2022-12-18T05:58:32;-9.10;1.00
6662;DHT22;3367;48.714;8.994;2022-12-18T06:01:06;-9.20;1.00
6662;DHT22;3367;48.714;8.994;2022-12-18T06:03:33;-9.30;99.90
6662;DHT22;3367;48.714;8.994;2022-12-18T06:06:00;-9.40;99.90
6662;DHT22;3367;48.714;8.994;2022-12-18T06:08:27;-9.50;99.90
6662;DHT22;3367;48.714;8.994;2022-12-18T06:10:54;-9.60;99.90
6662;DHT22;3367;48.714;8.994;2022-12-18T06:13:21;-9.60;99.90
6662;DHT22;3367;48.714;8.994;2022-12-18T06:15:49;-9.70;99.90
6662;DHT22;3367;48.714;8.994;2022-12-18T06:18:16;-9.70;99.90
6662;DHT22;3367;48.714;8.994;2022-12-18T06:20:42;-9.70;99.90
6662;DHT22;3367;48.714;8.994;2022-12-18T06:23:09;-9.80;1.00
6662;DHT22;3367;48.714;8.994;2022-12-18T06:25:38;-9.90;1.00
6662;DHT22;3367;48.714;8.994;2022-12-18T06:28:05;-9.90;1.00
6662;DHT22;3367;48.714;8.994;2022-12-18T06:30:32;-10.00;1.00
6662;DHT22;3367;48.714;8.994;2022-12-18T06:33:00;-10.00;1.00
6662;DHT22;3367;48.714;8.994;2022-12-18T06:35:27;-10.10;1.00
6662;DHT22;3367;48.714;8.994;2022-12-18T06:37:54;-10.20;1.00
6662;DHT22;3367;48.714;8.994;2022-12-18T06:40:20;-10.30;1.00
6662;DHT22;3367;48.714;8.994;2022-12-18T06:42:47;-10.30;1.00
6662;DHT22;3367;48.714;8.994;2022-12-18T06:45:14;-10.30;1.00
6662;DHT22;3367;48.714;8.994;2022-12-18T06:47:41;-10.40;1.00
6662;DHT22;3367;48.714;8.994;2022-12-18T06:50:09;-10.30;1.00
6662;DHT22;3367;48.714;8.994;2022-12-18T06:52:36;-10.30;1.00
6662;DHT22;3367;48.714;8.994;2022-12-18T06:55:05;-10.30;1.00
6662;DHT22;3367;48.714;8.994;2022-12-18T06:57:35;-10.30;1.00
6662;DHT22;3367;48.714;8.994;2022-12-18T07:00:03;-10.30;1.00
6662;DHT22;3367;48.714;8.994;2022-12-18T07:02:30;-10.40;1.00
6662;DHT22;3367;48.714;8.994;2022-12-18T07:04:57;-10.40;1.00
6662;DHT22;3367;48.714;8.994;2022-12-18T07:07:25;-10.40;1.00
6662;DHT22;3367;48.714;8.994;2022-12-18T07:09:52;-10.50;1.00
6662;DHT22;3367;48.714;8.994;2022-12-18T07:12:19;-10.50;1.00
6662;DHT22;3367;48.714;8.994;2022-12-18T07:14:46;-10.50;1.00
6662;DHT22;3367;48.714;8.994;2022-12-18T07:17:13;-10.50;1.00
6662;DHT22;3367;48.714;8.994;2022-12-18T07:19:39;-10.50;1.00
6662;DHT22;3367;48.714;8.994;2022-12-18T07:22:06;-10.50;1.00
6662;DHT22;3367;48.714;8.994;2022-12-18T07:24:34;-10.40;1.00
6662;DHT22;3367;48.714;8.994;2022-12-18T07:27:01;-10.40;1.00
6662;DHT22;3367;48.714;8.994;2022-12-18T07:29:28;-10.20;1.00
6662;DHT22;3367;48.714;8.994;2022-12-18T07:31:54;-10.10;1.00
6662;DHT22;3367;48.714;8.994;2022-12-18T07:34:21;-10.00;1.00
6662;DHT22;3367;48.714;8.994;2022-12-18T07:36:48;-10.00;1.00
6662;DHT22;3367;48.714;8.994;2022-12-18T07:39:15;-9.90;1.00
6662;DHT22;3367;48.714;8.994;2022-12-18T07:41:43;-9.90;1.00
6662;DHT22;3367;48.714;8.994;2022-12-18T07:44:30;-9.90;1.00
6662;DHT22;3367;48.714;8.994;2022-12-18T07:46:57;-9.80;1.00
6662;DHT22;3367;48.714;8.994;2022-12-18T07:49:23;-9.80;1.00
6662;DHT22;3367;48.714;8.994;2022-12-18T07:51:50;-9.70;1.00
6662;DHT22;3367;48.714;8.994;2022-12-18T07:54:17;-9.60;1.00
6662;DHT22;3367;48.714;8.994;2022-12-18T07:59:22;-9.40;1.00
6662;DHT22;3367;48.714;8.994;2022-12-18T08:01:49;-9.30;1.00
6662;DHT22;3367;48.714;8.994;2022-12-18T08:04:15;-9.20;1.00
6662;DHT22;3367;48.714;8.994;2022-12-18T08:06:42;-9.10;1.00
6662;DHT22;3367;48.714;8.994;2022-12-18T08:09:10;-9.00;1.00
6662;DHT22;3367;48.714;8.994;2022-12-18T08:11:37;-8.80;1.00
6662;DHT22;3367;48.714;8.994;2022-12-18T08:14:05;-8.70;1.00
6662;DHT22;3367;48.714;8.994;2022-12-18T08:16:32;-8.60;1.00
6662;DHT22;3367;48.714;8.994;2022-12-18T08:18:58;-8.50;1.00
6662;DHT22;3367;48.714;8.994;2022-12-18T08:21:26;-8.40;1.00
6662;DHT22;3367;48.714;8.994;2022-12-18T08:23:54;-8.30;1.00
6662;DHT22;3367;48.714;8.994;2022-12-18T08:26:23;-8.20;1.00
6662;DHT22;3367;48.714;8.994;2022-12-18T08:28:51;-8.10;1.00
6662;DHT22;3367;48.714;8.994;2022-12-18T08:31:21;-7.90;1.00
6662;DHT22;3367;48.714;8.994;2022-12-18T08:33:49;-7.80;1.00
6662;DHT22;3367;48.714;8.994;2022-12-18T08:36:21;-7.70;1.00
6662;DHT22;3367;48.714;8.994;2022-12-18T08:38:50;-7.50;99.90
6662;DHT22;3367;48.714;8.994;2022-12-18T08:41:17;-7.40;99.90
6662;DHT22;3367;48.714;8.994;2022-12-18T08:43:44;-7.30;99.90
6662;DHT22;3367;48.714;8.994;2022-12-18T08:46:33;-7.20;99.90
6662;DHT22;3367;48.714;8.994;2022-12-18T08:49:00;-7.00;99.90
6662;DHT22;3367;48.714;8.994;2022-12-18T08:51:27;-6.90;99.90
6662;DHT22;3367;48.714;8.994;2022-12-18T08:53:54;-6.80;1.00
6662;DHT22;3367;48.714;8.994;2022-12-18T08:56:21;-6.70;1.00
6662;DHT22;3367;48.714;8.994;2022-12-18T08:58:51;-6.50;1.00
6662;DHT22;3367;48.714;8.994;2022-12-18T09:01:18;-6.40;1.00
6662;DHT22;3367;48.714;8.994;2022-12-18T09:03:47;-6.30;1.00
6662;DHT22;3367;48.714;8.994;2022-12-18T09:06:14;-6.10;1.00
6662;DHT22;3367;48.714;8.994;2022-12-18T09:08:42;-6.00;1.00
6662;DHT22;3367;48.714;8.994;2022-12-18T09:11:13;-5.90;1.00
6662;DHT22;3367;48.714;8.994;2022-12-18T09:13:40;-5.80;1.00
6662;DHT22;3367;48.714;8.994;2022-12-18T09:16:07;-5.70;1.00
6662;DHT22;3367;48.714;8.994;2022-12-18T09:18:33;-5.50;1.00
6662;DHT22;3367;48.714;8.994;2022-12-18T09:21:08;-5.50;1.00
6662;DHT22;3367;48.714;8.994;2022-12-18T09:23:35;-5.40;99.90
6662;DHT22;3367;48.714;8.994;2022-12-18T09:26:01;-5.30;99.90
6662;DHT22;3367;48.714;8.994;2022-12-18T09:28:28;-5.20;99.90
6662;DHT22;3367;48.714;8.994;2022-12-18T09:30:55;-5.10;99.90
6662;DHT22;3367;48.714;8.994;2022-12-18T09:33:22;-5.00;99.90
6662;DHT22;3367;48.714;8.994;2022-12-18T09:35:49;-4.80;99.90
6662;DHT22;3367;48.714;8.994;2022-12-18T09:38:18;-4.70;99.90
6662;DHT22;3367;48.714;8.994;2022-12-18T09:40:49;-4.60;99.90
6662;DHT22;3367;48.714;8.994;2022-12-18T09:43:19;-4.50;99.90
6662;DHT22;3367;48.714;8.994;2022-12-18T09:45:49;-4.40;52.60
6662;DHT22;3367;48.714;8.994;2022-12-18T09:48:20;-4.30;1.00
6662;DHT22;3367;48.714;8.994;2022-12-18T09:50:50;-4.20;1.00
6662;DHT22;3367;48.714;8.994;2022-12-18T09:53:24;-4.10;1.00
6662;DHT22;3367;48.714;8.994;2022-12-18T09:55:52;-4.00;1.00
6662;DHT22;3367;48.714;8.994;2022-12-18T09:58:28;-4.00;1.00
6662;DHT22;3367;48.714;8.994;2022-12-18T10:00:57;-4.00;1.00
6662;DHT22;3367;48.714;8.994;2022-12-18T10:03:23;-4.00;1.00
6662;DHT22;3367;48.714;8.994;2022-12-18T10:05:58;-4.00;1.00
6662;DHT22;3367;48.714;8.994;2022-12-18T10:08:37;-3.90;1.00
6662;DHT22;3367;48.714;8.994;2022-12-18T10:11:29;-3.70;1.00
6662;DHT22;3367;48.714;8.994;2022-12-18T10:14:03;-3.60;1.00
6662;DHT22;3367;48.714;8.994;2022-12-18T10:16:38;-3.50;1.00
6662;DHT22;3367;48.714;8.994;2022-12-18T10:19:20;-3.50;1.00
6662;DHT22;3367;48.714;8.994;2022-12-18T10:21:58;-3.40;1.00
6662;DHT22;3367;48.714;8.994;2022-12-18T10:24:35;-3.40;1.00
6662;DHT22;3367;48.714;8.994;2022-12-18T10:27:12;-3.40;1.00
6662;DHT22;3367;48.714;8.994;2022-12-18T10:29:41;-3.30;1.00
6662;DHT22;3367;48.714;8.994;2022-12-18T10:32:15;-3.20;1.00
6662;DHT22;3367;48.714;8.994;2022-12-18T10:34:45;-3.10;1.00
6662;DHT22;3367;48.714;8.994;2022-12-18T10:37:16;-3.10;99.90
6662;DHT22;3367;48.714;8.994;2022-12-18T10:39:45;-3.10;1.00
6662;DHT22;3367;48.714;8.994;2022-12-18T10:42:17;-3.00;1.00
6662;DHT22;3367;48.714;8.994;2022-12-18T10:44:44;-2.90;1.00
6662;DHT22;3367;48.714;8.994;2022-12-18T10:47:14;-2.80;1.00
6662;DHT22;3367;48.714;8.994;2022-12-18T10:49:47;-2.60;1.00
6662;DHT22;3367;48.714;8.994;2022-12-18T10:52:17;-2.60;99.90
6662;DHT22;3367;48.714;8.994;2022-12-18T10:54:51;-2.50;99.90
6662;DHT22;3367;48.714;8.994;2022-12-18T10:57:31;-2.40;99.90
6662;DHT22;3367;48.714;8.994;2022-12-18T11:00:03;-2.40;99.90
6662;DHT22;3367;48.714;8.994;2022-12-18T11:02:39;-2.40;99.90
6662;DHT22;3367;48.714;8.994;2022-12-18T11:05:22;-2.30;99.90
6662;DHT22;3367;48.714;8.994;2022-12-18T11:07:50;-2.20;99.90
6662;DHT22;3367;48.714;8.994;2022-12-18T11:10:25;-2.20;99.90
6662;DHT22;3367;48.714;8.994;2022-12-18T11:12:52;-2.00;99.90
6662;DHT22;3367;48.714;8.994;2022-12-18T11:15:21;-1.80;99.90
6662;DHT22;3367;48.714;8.994;2022-12-18T11:17:50;-1.70;99.90
6662;DHT22;3367;48.714;8.994;2022-12-18T11:20:26;-1.60;99.90
6662;DHT22;3367;48.714;8.994;2022-12-18T11:22:56;-1.60;99.90
6662;DHT22;3367;48.714;8.994;2022-12-18T11:25:25;-1.60;99.90
6662;DHT22;3367;48.714;8.994;2022-12-18T11:27:54;-1.50;99.90
6662;DHT22;3367;48.714;8.994;2022-12-18T11:30:23;-1.50;99.90
6662;DHT22;3367;48.714;8.994;2022-12-18T11:32:51;-1.50;99.90
6662;DHT22;3367;48.714;8.994;2022-12-18T11:35:21;-1.60;99.90
6662;DHT22;3367;48.714;8.994;2022-12-18T11:37:54;-1.60;99.90
6662;DHT22;3367;48.714;8.994;2022-12-18T11:40:29;-1.60;99.90
6662;DHT22;3367;48.714;8.994;2022-12-18T11:43:01;-1.70;99.90
6662;DHT22;3367;48.714;8.994;2022-12-18T11:45:34;-1.70;99.90
6662;DHT22;3367;48.714;8.994;2022-12-18T11:48:04;-1.70;99.90
6662;DHT22;3367;48.714;8.994;2022-12-18T11:50:43;-1.60;99.90
6662;DHT22;3367;48.714;8.994;2022-12-18T11:53:12;-1.50;99.90
6662;DHT22;3367;48.714;8.994;2022-12-18T11:55:47;-1.50;99.90
6662;DHT22;3367;48.714;8.994;2022-12-18T11:58:25;-1.40;99.90
6662;DHT22;3367;48.714;8.994;2022-12-18T12:00:58;-1.50;99.90
6662;DHT22;3367;48.714;8.994;2022-12-18T12:03:50;-1.60;99.90
6662;DHT22;3367;48.714;8.994;2022-12-18T12:06:23;-1.60;99.90
6662;DHT22;3367;48.714;8.994;2022-12-18T12:08:59;-1.50;99.90
6662;DHT22;3367;48.714;8.994;2022-12-18T12:11:36;-1.50;99.90
6662;DHT22;3367;48.714;8.994;2022-12-18T12:14:15;-1.60;99.90
6662;DHT22;3367;48.714;8.994;2022-12-18T12:16:52;-1.60;99.90
6662;DHT22;3367;48.714;8.994;2022-12-18T12:19:32;-1.60;99.90
6662;DHT22;3367;48.714;8.994;2022-12-18T12:22:08;-1.50;99.90
6662;DHT22;3367;48.714;8.994;2022-12-18T12:24:48;-1.60;99.90
6662;DHT22;3367;48.714;8.994;2022-12-18T12:27:20;-1.70;99.90
6662;DHT22;3367;48.714;8.994;2022-12-18T12:30:00;-1.60;99.90
6662;DHT22;3367;48.714;8.994;2022-12-18T12:32:45;-1.50;99.90
6662;DHT22;3367;48.714;8.994;2022-12-18T12:35:22;-1.50;99.90
6662;DHT22;3367;48.714;8.994;2022-12-18T12:38:00;-1.50;99.90
6662;DHT22;3367;48.714;8.994;2022-12-18T12:40:33;-1.50;99.90
6662;DHT22;3367;48.714;8.994;2022-12-18T12:43:10;-1.50;99.90
6662;DHT22;3367;48.714;8.994;2022-12-18T12:45:44;-1.40;99.90
6662;DHT22;3367;48.714;8.994;2022-12-18T12:48:18;-1.40;99.90
6662;DHT22;3367;48.714;8.994;2022-12-18T12:50:48;-1.40;99.90
6662;DHT22;3367;48.714;8.994;2022-12-18T12:53:23;-1.40;99.90
6662;DHT22;3367;48.714;8.994;2022-12-18T12:55:52;-1.40;99.90
6662;DHT22;3367;48.714;8.994;2022-12-18T12:58:26;-1.30;99.90
6662;DHT22;3367;48.714;8.994;2022-12-18T13:01:04;-1.20;99.90
6662;DHT22;3367;48.714;8.994;2022-12-18T13:03:43;-1.00;99.90
6662;DHT22;3367;48.714;8.994;2022-12-18T13:06:16;-0.90;99.90
6662;DHT22;3367;48.714;8.994;2022-12-18T13:08:54;-0.80;99.90
6662;DHT22;3367;48.714;8.994;2022-12-18T13:11:34;-0.60;99.90
6662;DHT22;3367;48.714;8.994;2022-12-18T13:14:26;-0.70;99.90
6662;DHT22;3367;48.714;8.994;2022-12-18T13:17:26;-0.70;99.90
6662;DHT22;3367;48.714;8.994;2022-12-18T13:20:08;-0.80;99.90
6662;DHT22;3367;48.714;8.994;2022-12-18T13:22:37;-0.90;99.90
6662;DHT22;3367;48.714;8.994;2022-12-18T13:25:32;-1.00;99.90
6662;DHT22;3367;48.714;8.994;2022-12-18T13:28:09;-0.90;99.90
6662;DHT22;3367;48.714;8.994;2022-12-18T13:33:39;-0.90;99.90
6662;DHT22;3367;48.714;8.994;2022-12-18T13:39:30;-1.00;99.90
6662;DHT22;3367;48.714;8.994;2022-12-18T13:45:45;-1.10;99.90
6662;DHT22;3367;48.714;8.994;2022-12-18T13:48:21;-1.10;99.90
6662;DHT22;3367;48.714;8.994;2022-12-18T13:50:53;-1.20;99.90
6662;DHT22;3367;48.714;8.994;2022-12-18T13:53:24;-1.20;99.90
6662;DHT22;3367;48.714;8.994;2022-12-18T13:55:51;-1.30;99.90
6662;DHT22;3367;48.714;8.994;2022-12-18T13:58:18;-1.30;99.90
6662;DHT22;3367;48.714;8.994;2022-12-18T14:00:46;-1.30;99.90
6662;DHT22;3367;48.714;8.994;2022-12-18T14:03:19;-1.40;99.90
6662;DHT22;3367;48.714;8.994;2022-12-18T14:05:52;-1.40;99.90
6662;DHT22;3367;48.714;8.994;2022-12-18T14:08:19;-1.50;99.90
6662;DHT22;3367;48.714;8.994;2022-12-18T14:10:48;-1.50;1.00
6662;DHT22;3367;48.714;8.994;2022-12-18T14:13:21;-1.60;1.00
6662;DHT22;3367;48.714;8.994;2022-12-18T14:15:51;-1.70;1.00
6662;DHT22;3367;48.714;8.994;2022-12-18T14:18:21;-1.70;1.00
6662;DHT22;3367;48.714;8.994;2022-12-18T14:20:50;-1.80;1.00
6662;DHT22;3367;48.714;8.994;2022-12-18T14:23:32;-1.80;1.00
6662;DHT22;3367;48.714;8.994;2022-12-18T14:26:00;-1.90;1.00
6662;DHT22;3367;48.714;8.994;2022-12-18T14:28:28;-2.00;1.00
6662;DHT22;3367;48.714;8.994;2022-12-18T14:30:56;-2.00;1.00
6662;DHT22;3367;48.714;8.994;2022-12-18T14:33:25;-2.00;1.00
6662;DHT22;3367;48.714;8.994;2022-12-18T14:35:56;-2.10;1.00
6662;DHT22;3367;48.714;8.994;2022-12-18T14:38:27;-2.20;1.00
6662;DHT22;3367;48.714;8.994;2022-12-18T14:40:56;-2.30;1.00
6662;DHT22;3367;48.714;8.994;2022-12-18T14:43:23;-2.30;1.00
6662;DHT22;3367;48.714;8.994;2022-12-18T14:45:50;-2.40;1.00
6662;DHT22;3367;48.714;8.994;2022-12-18T14:48:20;-2.50;1.00
6662;DHT22;3367;48.714;8.994;2022-12-18T14:50:59;-2.50;1.00
6662;DHT22;3367;48.714;8.994;2022-12-18T14:53:34;-2.50;1.00
6662;DHT22;3367;48.714;8.994;2022-12-18T14:56:01;-2.60;1.00
6662;DHT22;3367;48.714;8.994;2022-12-18T14:58:28;-2.70;1.00
6662;DHT22;3367;48.714;8.994;2022-12-18T15:00:55;-2.70;1.00
6662;DHT22;3367;48.714;8.994;2022-12-18T15:03:23;-2.80;1.00
6662;DHT22;3367;48.714;8.994;2022-12-18T15:05:51;-2.80;1.00
6662;DHT22;3367;48.714;8.994;2022-12-18T15:08:30;-2.90;15.40
6662;DHT22;3367;48.714;8.994;2022-12-18T15:10:57;-3.00;99.90
6662;DHT22;3367;48.714;8.994;2022-12-18T15:13:24;-3.10;99.90
6662;DHT22;3367;48.714;8.994;2022-12-18T15:15:52;-3.10;99.90
6662;DHT22;3367;48.714;8.994;2022-12-18T15:18:21;-3.20;99.90
6662;DHT22;3367;48.714;8.994;2022-12-18T15:20:53;-3.30;99.90
6662;DHT22;3367;48.714;8.994;2022-12-18T15:23:21;-3.30;99.90
6662;DHT22;3367;48.714;8.994;2022-12-18T15:25:56;-3.40;1.00
6662;DHT22;3367;48.714;8.994;2022-12-18T15:28:25;-3.40;1.00
6662;DHT22;3367;48.714;8.994;2022-12-18T15:31:21;-3.50;1.00
6662;DHT22;3367;48.714;8.994;2022-12-18T15:34:05;-3.50;1.00
6662;DHT22;3367;48.714;8.994;2022-12-18T15:36:37;-3.60;1.00
6662;DHT22;3367;48.714;8.994;2022-12-18T15:39:04;-3.70;1.00
6662;DHT22;3367;48.714;8.994;2022-12-18T15:41:32;-3.70;1.00
6662;DHT22;3367;48.714;8.994;2022-12-18T15:43:59;-3.70;1.00
6662;DHT22;3367;48.714;8.994;2022-12-18T15:46:25;-3.80;1.00
6662;DHT22;3367;48.714;8.994;2022-12-18T15:48:54;-3.80;1.00
6662;DHT22;3367;48.714;8.994;2022-12-18T15:51:24;-3.90;1.00
6662;DHT22;3367;48.714;8.994;2022-12-18T15:53:56;-3.90;1.00
6662;DHT22;3367;48.714;8.994;2022-12-18T15:56:23;-3.90;1.00
6662;DHT22;3367;48.714;8.994;2022-12-18T15:59:10;-3.90;1.00
6662;DHT22;3367;48.714;8.994;2022-12-18T16:01:38;-3.90;1.00
6662;DHT22;3367;48.714;8.994;2022-12-18T16:04:04;-4.00;1.00
6662;DHT22;3367;48.714;8.994;2022-12-18T16:06:31;-4.00;35.70
6662;DHT22;3367;48.714;8.994;2022-12-18T16:08:59;-4.00;12.00
6662;DHT22;3367;48.714;8.994;2022-12-18T16:11:28;-4.00;83.50
6662;DHT22;3367;48.714;8.994;2022-12-18T16:14:15;-4.00;98.40
6662;DHT22;3367;48.714;8.994;2022-12-18T16:16:43;-4.00;99.90
6662;DHT22;3367;48.714;8.994;2022-12-18T16:19:09;-4.00;99.90
6662;DHT22;3367;48.714;8.994;2022-12-18T16:21:36;-4.00;99.90
6662;DHT22;3367;48.714;8.994;2022-12-18T16:24:05;-3.90;99.90
6662;DHT22;3367;48.714;8.994;2022-12-18T16:26:32;-3.90;99.90
6662;DHT22;3367;48.714;8.994;2022-12-18T16:28:58;-3.90;99.90
6662;DHT22;3367;48.714;8.994;2022-12-18T16:31:25;-3.80;99.90
6662;DHT22;3367;48.714;8.994;2022-12-18T16:34:10;-3.80;99.90
6662;DHT22;3367;48.714;8.994;2022-12-18T16:36:37;-3.70;99.90